sensor_id;sensor_type;location;lat;lon;timestamp;temperature;humidity
13344;DHT22;6741;48.964;9.406;2022-07-24T00:02:09;19.00;99.90
13344;DHT22;6741;48.964;9.406;2022-07-24T00:04:36;19.00;99.90
13344;DHT22;6741;48.964;9.406;2022-07-24T00:07:03;19.00;99.90
13344;DHT22;6741;48.964;9.406;2022-07-24T00:09:29;19.00;99.90
13344;DHT22;6741;48.964;9.406;2022-07-24T00:11:56;19.00;99.90
13344;DHT22;6741;48.964;9.406;2022-07-24T00:14:24;19.00;99.90
13344;DHT22;6741;48.964;9.406;2022-07-24T00:16:52;19.00;99.90
13344;DHT22;6741;48.964;9.406;2022-07-24T00:19:19;19.00;99.90
13344;DHT22;6741;48.964;9.406;2022-07-24T00:21:47;19.10;99.90
13344;DHT22;6741;48.964;9.406;2022-07-24T00:24:14;19.10;99.90
13344;DHT22;6741;48.964;9.406;2022-07-24T00:26:41;19.10;99.90
13344;DHT22;6741;48.964;9.406;2022-07-24T00:29:08;19.10;99.90
13344;DHT22;6741;48.964;9.406;2022-07-24T00:31:35;19.10;99.90
13344;DHT22;6741;48.964;9.406;2022-07-24T00:34:03;19.00;99.90
13344;DHT22;6741;48.964;9.406;2022-07-24T00:36:30;18.90;99.90
13344;DHT22;6741;48.964;9.406;2022-07-24T00:38:57;18.80;99.90
13344;DHT22;6741;48.964;9.406;2022-07-24T00:41:24;18.80;99.90
13344;DHT22;6741;48.964;9.406;2022-07-24T00:44:05;18.80;99.90
13344;DHT22;6741;48.964;9.406;2022-07-24T00:46:33;18.80;99.90
13344;DHT22;6741;48.964;9.406;2022-07-24T00:49:00;18.70;99.90
13344;DHT22;6741;48.964;9.406;2022-07-24T00:51:28;18.70;99.90
13344;DHT22;6741;48.964;9.406;2022-07-24T00:53:55;18.70;99.90
13344;DHT22;6741;48.964;9.406;2022-07-24T00:56:22;18.70;99.90
13344;DHT22;6741;48.964;9.406;2022-07-24T00:58:50;18.70;99.90
13344;DHT22;6741;48.964;9.406;2022-07-24T01:01:17;18.60;99.90
13344;DHT22;6741;48.964;9.406;2022-07-24T01:03:44;18.60;99.90
13344;DHT22;6741;48.964;9.406;2022-07-24T01:06:12;18.50;99.90
13344;DHT22;6741;48.964;9.406;2022-07-24T01:08:41;18.50;99.90
13344;DHT22;6741;48.964;9.406;2022-07-24T01:11:10;18.40;99.90
13344;DHT22;6741;48.964;9.406;2022-07-24T01:13:38;18.40;99.90
13344;DHT22;6741;48.964;9.406;2022-07-24T01:16:06;18.30;99.90
13344;DHT22;6741;48.964;9.406;2022-07-24T01:18:33;18.20;99.90
13344;DHT22;6741;48.964;9.406;2022-07-24T01:21:02;18.20;99.90
13344;DHT22;6741;48.964;9.406;2022-07-24T01:23:29;18.10;99.90
13344;DHT22;6741;48.964;9.406;2022-07-24T01:25:56;18.10;99.90
13344;DHT22;6741;48.964;9.406;2022-07-24T01:28:23;18.10;99.90
13344;DHT22;6741;48.964;9.406;2022-07-24T01:30:50;18.00;99.90
13344;DHT22;6741;48.964;9.406;2022-07-24T01:33:18;18.10;99.90
13344;DHT22;6741;48.964;9.406;2022-07-24T01:35:45;18.10;99.90
13344;DHT22;6741;48.964;9.406;2022-07-24T01:38:13;18.00;99.90
13344;DHT22;6741;48.964;9.406;2022-07-24T01:40:40;18.00;99.90
13344;DHT22;6741;48.964;9.406;2022-07-24T01:43:08;18.00;99.90
13344;DHT22;6741;48.964;9.406;2022-07-24T01:45:35;17.90;99.90
13344;DHT22;6741;48.964;9.406;2022-07-24T01:48:03;17.80;99.90
13344;DHT22;6741;48.964;9.406;2022-07-24T01:50:30;17.80;99.90
13344;DHT22;6741;48.964;9.406;2022-07-24T01:52:57;17.80;99.90
13344;DHT22;6741;48.964;9.406;2022-07-24T01:55:28;17.70;99.90
13344;DHT22;6741;48.964;9.406;2022-07-24T01:57:55;17.70;99.90
13344;DHT22;6741;48.964;9.406;2022-07-24T02:00:22;17.60;99.90
13344;DHT22;6741;48.964;9.406;2022-07-24T02:02:49;17.60;99.90
13344;DHT22;6741;48.964;9.406;2022-07-24T02:05:16;17.50;99.90
13344;DHT22;6741;48.964;9.406;2022-07-24T02:07:44;17.50;99.90
13344;DHT22;6741;48.964;9.406;2022-07-24T02:10:12;17.40;99.90
13344;DHT22;6741;48.964;9.406;2022-07-24T02:12:41;17.30;99.90
13344;DHT22;6741;48.964;9.406;2022-07-24T02:15:09;17.30;99.90
13344;DHT22;6741;48.964;9.406;2022-07-24T02:17:36;17.30;99.90
13344;DHT22;6741;48.964;9.406;2022-07-24T02:20:04;17.30;99.90
13344;DHT22;6741;48.964;9.406;2022-07-24T02:22:31;17.30;99.90
13344;DHT22;6741;48.964;9.406;2022-07-24T02:24:59;17.20;99.90
13344;DHT22;6741;48.964;9.406;2022-07-24T02:27:26;17.20;99.90
13344;DHT22;6741;48.964;9.406;2022-07-24T02:29:54;17.10;99.90
13344;DHT22;6741;48.964;9.406;2022-07-24T02:32:21;17.20;99.90
13344;DHT22;6741;48.964;9.406;2022-07-24T02:34:48;17.20;99.90
13344;DHT22;6741;48.964;9.406;2022-07-24T02:37:15;17.20;99.90
13344;DHT22;6741;48.964;9.406;2022-07-24T02:39:42;17.20;99.90
13344;DHT22;6741;48.964;9.406;2022-07-24T02:42:09;17.30;99.90
13344;DHT22;6741;48.964;9.406;2022-07-24T02:44:36;17.20;99.90
13344;DHT22;6741;48.964;9.406;2022-07-24T02:47:04;17.20;99.90
13344;DHT22;6741;48.964;9.406;2022-07-24T02:49:31;17.20;99.90
13344;DHT22;6741;48.964;9.406;2022-07-24T02:51:58;17.20;99.90
13344;DHT22;6741;48.964;9.406;2022-07-24T02:54:25;17.20;99.90
13344;DHT22;6741;48.964;9.406;2022-07-24T02:56:52;17.10;99.90
13344;DHT22;6741;48.964;9.406;2022-07-24T02:59:19;17.10;99.90
13344;DHT22;6741;48.964;9.406;2022-07-24T03:01:46;17.10;99.90
13344;DHT22;6741;48.964;9.406;2022-07-24T03:04:14;17.10;99.90
13344;DHT22;6741;48.964;9.406;2022-07-24T03:06:41;17.00;99.90
13344;DHT22;6741;48.964;9.406;2022-07-24T03:09:08;16.90;99.90
13344;DHT22;6741;48.964;9.406;2022-07-24T03:11:35;16.90;99.90
13344;DHT22;6741;48.964;9.406;2022-07-24T03:14:02;16.90;99.90
13344;DHT22;6741;48.964;9.406;2022-07-24T03:16:29;16.90;99.90
13344;DHT22;6741;48.964;9.406;2022-07-24T03:18:56;16.90;99.90
13344;DHT22;6741;48.964;9.406;2022-07-24T03:21:25;16.90;99.90
13344;DHT22;6741;48.964;9.406;2022-07-24T03:23:52;16.80;99.90
13344;DHT22;6741;48.964;9.406;2022-07-24T03:26:18;16.80;99.90
13344;DHT22;6741;48.964;9.406;2022-07-24T03:28:45;16.80;99.90
13344;DHT22;6741;48.964;9.406;2022-07-24T03:31:12;16.80;99.90
13344;DHT22;6741;48.964;9.406;2022-07-24T03:33:39;16.90;99.90
13344;DHT22;6741;48.964;9.406;2022-07-24T03:36:07;16.90;99.90
13344;DHT22;6741;48.964;9.406;2022-07-24T03:38:36;16.90;99.90
13344;DHT22;6741;48.964;9.406;2022-07-24T03:41:03;16.80;99.90
13344;DHT22;6741;48.964;9.406;2022-07-24T03:43:30;16.80;99.90
13344;DHT22;6741;48.964;9.406;2022-07-24T03:45:56;16.90;99.90
13344;DHT22;6741;48.964;9.406;2022-07-24T03:48:23;16.80;99.90
13344;DHT22;6741;48.964;9.406;2022-07-24T03:50:50;16.80;99.90
13344;DHT22;6741;48.964;9.406;2022-07-24T03:53:17;16.80;99.90
13344;DHT22;6741;48.964;9.406;2022-07-24T03:55:45;16.80;99.90
13344;DHT22;6741;48.964;9.406;2022-07-24T03:58:13;16.80;99.90
13344;DHT22;6741;48.964;9.406;2022-07-24T04:00:39;16.80;99.90
13344;DHT22;6741;48.964;9.406;2022-07-24T04:03:06;16.80;99.90
13344;DHT22;6741;48.964;9.406;2022-07-24T04:05:33;16.90;99.90
13344;DHT22;6741;48.964;9.406;2022-07-24T04:08:00;16.80;99.90
13344;DHT22;6741;48.964;9.406;2022-07-24T04:10:27;16.80;99.90
13344;DHT22;6741;48.964;9.406;2022-07-24T04:12:55;16.80;99.90
13344;DHT22;6741;48.964;9.406;2022-07-24T04:15:22;16.80;99.90
13344;DHT22;6741;48.964;9.406;2022-07-24T04:17:49;16.80;99.90
13344;DHT22;6741;48.964;9.406;2022-07-24T04:20:16;16.80;99.90
13344;DHT22;6741;48.964;9.406;2022-07-24T04:22:43;16.70;99.90
13344;DHT22;6741;48.964;9.406;2022-07-24T04:25:10;16.80;99.90
13344;DHT22;6741;48.964;9.406;2022-07-24T04:27:37;16.80;99.90
13344;DHT22;6741;48.964;9.406;2022-07-24T04:30:06;16.80;99.90
13344;DHT22;6741;48.964;9.406;2022-07-24T04:32:33;16.80;99.90
13344;DHT22;6741;48.964;9.406;2022-07-24T04:35:00;16.80;99.90
13344;DHT22;6741;48.964;9.406;2022-07-24T04:37:27;16.90;99.90
13344;DHT22;6741;48.964;9.406;2022-07-24T04:39:54;16.90;99.90
13344;DHT22;6741;48.964;9.406;2022-07-24T04:42:21;16.90;99.90
13344;DHT22;6741;48.964;9.406;2022-07-24T04:44:48;16.90;99.90
13344;DHT22;6741;48.964;9.406;2022-07-24T04:47:17;16.90;99.90
13344;DHT22;6741;48.964;9.406;2022-07-24T04:49:44;17.00;99.90
13344;DHT22;6741;48.964;9.406;2022-07-24T04:52:11;17.00;99.90
13344;DHT22;6741;48.964;9.406;2022-07-24T04:54:37;17.00;99.90
13344;DHT22;6741;48.964;9.406;2022-07-24T04:57:04;17.10;99.90
13344;DHT22;6741;48.964;9.406;2022-07-24T04:59:31;17.20;99.90
13344;DHT22;6741;48.964;9.406;2022-07-24T05:01:58;17.20;99.90
13344;DHT22;6741;48.964;9.406;2022-07-24T05:04:27;17.20;99.90
13344;DHT22;6741;48.964;9.406;2022-07-24T05:06:54;17.30;99.90
13344;DHT22;6741;48.964;9.406;2022-07-24T05:09:20;17.40;99.90
13344;DHT22;6741;48.964;9.406;2022-07-24T05:11:47;17.40;99.90
13344;DHT22;6741;48.964;9.406;2022-07-24T05:14:14;17.50;99.90
13344;DHT22;6741;48.964;9.406;2022-07-24T05:16:41;17.50;99.90
13344;DHT22;6741;48.964;9.406;2022-07-24T05:19:08;17.60;99.90
13344;DHT22;6741;48.964;9.406;2022-07-24T05:21:36;17.60;99.90
13344;DHT22;6741;48.964;9.406;2022-07-24T05:24:03;17.60;99.90
13344;DHT22;6741;48.964;9.406;2022-07-24T05:26:31;17.70;99.90
13344;DHT22;6741;48.964;9.406;2022-07-24T05:28:58;17.70;99.90
13344;DHT22;6741;48.964;9.406;2022-07-24T05:31:25;17.90;99.90
13344;DHT22;6741;48.964;9.406;2022-07-24T05:33:52;17.90;99.90
13344;DHT22;6741;48.964;9.406;2022-07-24T05:36:19;18.00;99.90
13344;DHT22;6741;48.964;9.406;2022-07-24T05:38:47;18.20;99.90
13344;DHT22;6741;48.964;9.406;2022-07-24T05:41:14;18.20;99.90
13344;DHT22;6741;48.964;9.406;2022-07-24T05:43:41;18.30;99.90
13344;DHT22;6741;48.964;9.406;2022-07-24T05:46:08;18.40;99.90
13344;DHT22;6741;48.964;9.406;2022-07-24T05:48:35;18.50;99.90
13344;DHT22;6741;48.964;9.406;2022-07-24T05:51:02;18.50;99.90
13344;DHT22;6741;48.964;9.406;2022-07-24T05:53:29;18.60;99.90
13344;DHT22;6741;48.964;9.406;2022-07-24T05:55:57;18.80;99.90
13344;DHT22;6741;48.964;9.406;2022-07-24T05:58:24;18.90;99.90
13344;DHT22;6741;48.964;9.406;2022-07-24T06:00:51;19.00;99.90
13344;DHT22;6741;48.964;9.406;2022-07-24T06:03:18;19.20;99.90
13344;DHT22;6741;48.964;9.406;2022-07-24T06:05:45;19.30;99.90
13344;DHT22;6741;48.964;9.406;2022-07-24T06:08:12;19.30;99.90
13344;DHT22;6741;48.964;9.406;2022-07-24T06:10:39;19.40;99.90
13344;DHT22;6741;48.964;9.406;2022-07-24T06:13:07;19.50;99.90
13344;DHT22;6741;48.964;9.406;2022-07-24T06:15:34;19.60;99.90
13344;DHT22;6741;48.964;9.406;2022-07-24T06:18:01;19.70;99.90
13344;DHT22;6741;48.964;9.406;2022-07-24T06:20:28;19.90;99.90
13344;DHT22;6741;48.964;9.406;2022-07-24T06:22:55;20.10;99.90
13344;DHT22;6741;48.964;9.406;2022-07-24T06:25:22;20.30;99.90
13344;DHT22;6741;48.964;9.406;2022-07-24T06:27:50;20.40;99.90
13344;DHT22;6741;48.964;9.406;2022-07-24T06:30:22;20.50;99.90
13344;DHT22;6741;48.964;9.406;2022-07-24T06:33:09;20.60;99.90
13344;DHT22;6741;48.964;9.406;2022-07-24T06:35:36;20.70;99.90
13344;DHT22;6741;48.964;9.406;2022-07-24T06:38:03;20.90;99.90
13344;DHT22;6741;48.964;9.406;2022-07-24T06:40:32;21.00;98.90
13344;DHT22;6741;48.964;9.406;2022-07-24T06:43:00;21.20;86.50
13344;DHT22;6741;48.964;9.406;2022-07-24T06:45:31;21.30;76.10
13344;DHT22;6741;48.964;9.406;2022-07-24T06:47:59;21.50;60.90
13344;DHT22;6741;48.964;9.406;2022-07-24T06:50:26;21.70;34.80
13344;DHT22;6741;48.964;9.406;2022-07-24T06:52:54;21.70;27.90
13344;DHT22;6741;48.964;9.406;2022-07-24T06:55:22;21.80;13.20
13344;DHT22;6741;48.964;9.406;2022-07-24T06:57:49;22.00;26.30
13344;DHT22;6741;48.964;9.406;2022-07-24T07:00:16;22.10;7.40
13344;DHT22;6741;48.964;9.406;2022-07-24T07:02:45;22.20;1.00
13344;DHT22;6741;48.964;9.406;2022-07-24T07:05:13;22.30;1.00
13344;DHT22;6741;48.964;9.406;2022-07-24T07:07:40;22.40;1.00
13344;DHT22;6741;48.964;9.406;2022-07-24T07:10:08;22.60;1.00
13344;DHT22;6741;48.964;9.406;2022-07-24T07:12:36;22.70;1.00
13344;DHT22;6741;48.964;9.406;2022-07-24T07:15:04;22.90;1.00
13344;DHT22;6741;48.964;9.406;2022-07-24T07:17:31;23.10;1.00
13344;DHT22;6741;48.964;9.406;2022-07-24T07:20:00;23.20;1.00
13344;DHT22;6741;48.964;9.406;2022-07-24T07:22:28;23.30;1.00
13344;DHT22;6741;48.964;9.406;2022-07-24T07:24:55;23.50;1.00
13344;DHT22;6741;48.964;9.406;2022-07-24T07:27:22;23.60;99.90
13344;DHT22;6741;48.964;9.406;2022-07-24T07:29:49;23.80;99.90
13344;DHT22;6741;48.964;9.406;2022-07-24T07:32:16;23.80;99.90
13344;DHT22;6741;48.964;9.406;2022-07-24T07:34:43;23.80;1.00
13344;DHT22;6741;48.964;9.406;2022-07-24T07:37:11;23.90;99.90
13344;DHT22;6741;48.964;9.406;2022-07-24T07:39:38;24.00;99.90
13344;DHT22;6741;48.964;9.406;2022-07-24T07:42:05;24.10;99.90
13344;DHT22;6741;48.964;9.406;2022-07-24T07:44:32;24.20;99.90
13344;DHT22;6741;48.964;9.406;2022-07-24T07:46:59;24.20;1.00
13344;DHT22;6741;48.964;9.406;2022-07-24T07:49:26;24.30;1.00
13344;DHT22;6741;48.964;9.406;2022-07-24T07:51:53;24.50;99.90
13344;DHT22;6741;48.964;9.406;2022-07-24T07:54:22;24.40;1.00
13344;DHT22;6741;48.964;9.406;2022-07-24T07:56:49;24.30;1.00
13344;DHT22;6741;48.964;9.406;2022-07-24T07:59:16;24.50;1.00
13344;DHT22;6741;48.964;9.406;2022-07-24T08:01:43;24.60;82.80
13344;DHT22;6741;48.964;9.406;2022-07-24T08:04:11;24.70;1.00
13344;DHT22;6741;48.964;9.406;2022-07-24T08:06:38;24.90;1.00
13344;DHT22;6741;48.964;9.406;2022-07-24T08:09:05;25.10;99.90
13344;DHT22;6741;48.964;9.406;2022-07-24T08:11:34;25.20;99.90
13344;DHT22;6741;48.964;9.406;2022-07-24T08:14:02;25.20;1.00
13344;DHT22;6741;48.964;9.406;2022-07-24T08:16:29;25.30;1.00
13344;DHT22;6741;48.964;9.406;2022-07-24T08:18:56;25.50;99.90
13344;DHT22;6741;48.964;9.406;2022-07-24T08:21:23;25.70;1.00
13344;DHT22;6741;48.964;9.406;2022-07-24T08:23:50;25.40;1.00
13344;DHT22;6741;48.964;9.406;2022-07-24T08:26:18;25.30;1.00
13344;DHT22;6741;48.964;9.406;2022-07-24T08:28:47;25.60;1.00
13344;DHT22;6741;48.964;9.406;2022-07-24T08:31:14;25.80;1.00
13344;DHT22;6741;48.964;9.406;2022-07-24T08:33:41;26.10;1.00
13344;DHT22;6741;48.964;9.406;2022-07-24T08:36:09;26.40;1.00
13344;DHT22;6741;48.964;9.406;2022-07-24T08:38:36;26.50;1.00
13344;DHT22;6741;48.964;9.406;2022-07-24T08:41:03;26.50;99.90
13344;DHT22;6741;48.964;9.406;2022-07-24T08:43:34;26.80;99.90
13344;DHT22;6741;48.964;9.406;2022-07-24T08:46:03;26.70;99.90
13344;DHT22;6741;48.964;9.406;2022-07-24T08:48:30;26.60;99.90
13344;DHT22;6741;48.964;9.406;2022-07-24T08:50:58;26.50;99.90
13344;DHT22;6741;48.964;9.406;2022-07-24T08:53:25;26.30;99.90
13344;DHT22;6741;48.964;9.406;2022-07-24T08:55:52;26.40;99.90
13344;DHT22;6741;48.964;9.406;2022-07-24T08:58:19;26.30;99.90
13344;DHT22;6741;48.964;9.406;2022-07-24T09:00:46;26.50;99.90
13344;DHT22;6741;48.964;9.406;2022-07-24T09:03:14;26.60;99.90
13344;DHT22;6741;48.964;9.406;2022-07-24T09:05:52;26.80;99.90
13344;DHT22;6741;48.964;9.406;2022-07-24T09:08:20;27.10;1.00
13344;DHT22;6741;48.964;9.406;2022-07-24T09:10:55;27.40;99.90
13344;DHT22;6741;48.964;9.406;2022-07-24T09:13:25;27.70;1.00
13344;DHT22;6741;48.964;9.406;2022-07-24T09:15:55;27.90;99.90
13344;DHT22;6741;48.964;9.406;2022-07-24T09:18:28;28.00;1.00
13344;DHT22;6741;48.964;9.406;2022-07-24T09:20:56;28.10;1.00
13344;DHT22;6741;48.964;9.406;2022-07-24T09:23:23;28.20;1.00
13344;DHT22;6741;48.964;9.406;2022-07-24T09:25:51;28.30;99.90
13344;DHT22;6741;48.964;9.406;2022-07-24T09:28:18;28.30;1.00
13344;DHT22;6741;48.964;9.406;2022-07-24T09:30:46;28.30;1.00
13344;DHT22;6741;48.964;9.406;2022-07-24T09:33:16;28.50;1.00
13344;DHT22;6741;48.964;9.406;2022-07-24T09:35:47;28.40;99.90
13344;DHT22;6741;48.964;9.406;2022-07-24T09:38:16;28.10;99.90
13344;DHT22;6741;48.964;9.406;2022-07-24T09:40:45;28.40;99.90
13344;DHT22;6741;48.964;9.406;2022-07-24T09:43:18;28.70;1.00
13344;DHT22;6741;48.964;9.406;2022-07-24T09:45:54;29.00;99.90
13344;DHT22;6741;48.964;9.406;2022-07-24T09:48:23;29.00;1.00
13344;DHT22;6741;48.964;9.406;2022-07-24T09:50:53;28.80;99.90
13344;DHT22;6741;48.964;9.406;2022-07-24T09:53:22;29.10;1.00
13344;DHT22;6741;48.964;9.406;2022-07-24T09:56:01;29.30;99.90
13344;DHT22;6741;48.964;9.406;2022-07-24T09:58:29;29.00;99.90
13344;DHT22;6741;48.964;9.406;2022-07-24T10:00:58;29.40;99.90
13344;DHT22;6741;48.964;9.406;2022-07-24T10:03:28;29.60;99.90
13344;DHT22;6741;48.964;9.406;2022-07-24T10:05:59;28.80;1.00
13344;DHT22;6741;48.964;9.406;2022-07-24T10:08:27;28.30;1.00
13344;DHT22;6741;48.964;9.406;2022-07-24T10:10:55;28.30;1.00
13344;DHT22;6741;48.964;9.406;2022-07-24T10:13:22;29.00;99.90
13344;DHT22;6741;48.964;9.406;2022-07-24T10:16:03;29.50;99.90
13344;DHT22;6741;48.964;9.406;2022-07-24T10:18:44;29.20;1.00
13344;DHT22;6741;48.964;9.406;2022-07-24T10:21:16;29.30;1.00
13344;DHT22;6741;48.964;9.406;2022-07-24T10:26:49;29.80;1.00
13344;DHT22;6741;48.964;9.406;2022-07-24T10:29:19;30.00;1.00
13344;DHT22;6741;48.964;9.406;2022-07-24T10:31:47;30.40;25.90
13344;DHT22;6741;48.964;9.406;2022-07-24T10:34:20;30.30;1.00
13344;DHT22;6741;48.964;9.406;2022-07-24T10:36:57;30.10;1.00
13344;DHT22;6741;48.964;9.406;2022-07-24T10:39:36;30.00;1.00
13344;DHT22;6741;48.964;9.406;2022-07-24T10:42:06;30.70;1.00
13344;DHT22;6741;48.964;9.406;2022-07-24T10:44:33;31.00;1.00
13344;DHT22;6741;48.964;9.406;2022-07-24T10:47:06;31.40;1.00
13344;DHT22;6741;48.964;9.406;2022-07-24T10:49:44;31.40;1.00
13344;DHT22;6741;48.964;9.406;2022-07-24T10:52:25;31.60;99.90
13344;DHT22;6741;48.964;9.406;2022-07-24T10:55:30;31.70;99.90
13344;DHT22;6741;48.964;9.406;2022-07-24T10:57:58;32.10;99.90
13344;DHT22;6741;48.964;9.406;2022-07-24T11:00:31;32.00;99.90
13344;DHT22;6741;48.964;9.406;2022-07-24T11:03:00;31.30;99.90
13344;DHT22;6741;48.964;9.406;2022-07-24T11:05:31;31.20;99.90
13344;DHT22;6741;48.964;9.406;2022-07-24T11:08:29;31.50;99.90
13344;DHT22;6741;48.964;9.406;2022-07-24T11:11:06;31.20;99.90
13344;DHT22;6741;48.964;9.406;2022-07-24T11:13:50;32.00;99.90
13344;DHT22;6741;48.964;9.406;2022-07-24T11:16:19;33.00;99.90
13344;DHT22;6741;48.964;9.406;2022-07-24T11:22:02;33.00;99.90
13344;DHT22;6741;48.964;9.406;2022-07-24T11:24:31;33.60;99.90
13344;DHT22;6741;48.964;9.406;2022-07-24T11:27:02;33.70;99.90
13344;DHT22;6741;48.964;9.406;2022-07-24T11:29:31;33.40;99.90
13344;DHT22;6741;48.964;9.406;2022-07-24T11:32:03;33.40;99.90
13344;DHT22;6741;48.964;9.406;2022-07-24T11:34:32;33.20;99.90
13344;DHT22;6741;48.964;9.406;2022-07-24T11:36:59;33.80;99.90
13344;DHT22;6741;48.964;9.406;2022-07-24T11:39:28;34.50;99.90
13344;DHT22;6741;48.964;9.406;2022-07-24T11:41:58;34.80;99.90
13344;DHT22;6741;48.964;9.406;2022-07-24T11:44:27;34.70;99.90
13344;DHT22;6741;48.964;9.406;2022-07-24T11:46:56;34.00;99.90
13344;DHT22;6741;48.964;9.406;2022-07-24T11:49:24;33.90;99.90
13344;DHT22;6741;48.964;9.406;2022-07-24T11:51:53;32.80;99.90
13344;DHT22;6741;48.964;9.406;2022-07-24T11:54:22;33.30;99.90
13344;DHT22;6741;48.964;9.406;2022-07-24T11:56:49;31.80;99.90
13344;DHT22;6741;48.964;9.406;2022-07-24T11:59:26;31.90;99.90
13344;DHT22;6741;48.964;9.406;2022-07-24T12:01:55;32.00;99.90
13344;DHT22;6741;48.964;9.406;2022-07-24T12:04:23;33.40;99.90
13344;DHT22;6741;48.964;9.406;2022-07-24T12:06:50;34.20;99.90
13344;DHT22;6741;48.964;9.406;2022-07-24T12:09:17;34.60;99.90
13344;DHT22;6741;48.964;9.406;2022-07-24T12:11:44;35.60;99.90
13344;DHT22;6741;48.964;9.406;2022-07-24T12:14:15;36.20;99.90
13344;DHT22;6741;48.964;9.406;2022-07-24T12:16:44;36.90;99.90
13344;DHT22;6741;48.964;9.406;2022-07-24T12:19:19;36.80;99.90
13344;DHT22;6741;48.964;9.406;2022-07-24T12:21:47;37.20;99.90
13344;DHT22;6741;48.964;9.406;2022-07-24T12:24:15;37.20;99.90
13344;DHT22;6741;48.964;9.406;2022-07-24T12:26:49;36.20;99.90
13344;DHT22;6741;48.964;9.406;2022-07-24T12:29:16;34.50;99.90
13344;DHT22;6741;48.964;9.406;2022-07-24T12:31:45;35.40;99.90
13344;DHT22;6741;48.964;9.406;2022-07-24T12:34:12;35.90;99.90
13344;DHT22;6741;48.964;9.406;2022-07-24T12:36:40;36.60;99.90
13344;DHT22;6741;48.964;9.406;2022-07-24T12:39:08;36.80;99.90
13344;DHT22;6741;48.964;9.406;2022-07-24T12:41:45;37.80;99.90
13344;DHT22;6741;48.964;9.406;2022-07-24T12:44:14;37.50;99.90
13344;DHT22;6741;48.964;9.406;2022-07-24T12:46:42;37.60;99.90
13344;DHT22;6741;48.964;9.406;2022-07-24T12:49:13;37.30;99.90
13344;DHT22;6741;48.964;9.406;2022-07-24T12:51:44;36.80;99.90
13344;DHT22;6741;48.964;9.406;2022-07-24T12:54:16;37.50;99.90
13344;DHT22;6741;48.964;9.406;2022-07-24T12:56:43;37.50;99.90
13344;DHT22;6741;48.964;9.406;2022-07-24T12:59:21;37.30;99.90
13344;DHT22;6741;48.964;9.406;2022-07-24T13:01:50;37.40;99.10
13344;DHT22;6741;48.964;9.406;2022-07-24T13:04:19;36.20;99.90
13344;DHT22;6741;48.964;9.406;2022-07-24T13:06:48;36.70;98.20
13344;DHT22;6741;48.964;9.406;2022-07-24T13:09:16;36.90;94.80
13344;DHT22;6741;48.964;9.406;2022-07-24T13:11:45;36.60;96.70
13344;DHT22;6741;48.964;9.406;2022-07-24T13:14:14;37.60;95.00
13344;DHT22;6741;48.964;9.406;2022-07-24T13:16:44;38.30;92.20
13344;DHT22;6741;48.964;9.406;2022-07-24T13:19:11;38.40;85.10
13344;DHT22;6741;48.964;9.406;2022-07-24T13:21:40;38.10;85.10
13344;DHT22;6741;48.964;9.406;2022-07-24T13:24:08;38.00;82.80
13344;DHT22;6741;48.964;9.406;2022-07-24T13:26:36;37.20;90.30
13344;DHT22;6741;48.964;9.406;2022-07-24T13:29:04;38.00;83.90
13344;DHT22;6741;48.964;9.406;2022-07-24T13:31:31;38.10;83.50
13344;DHT22;6741;48.964;9.406;2022-07-24T13:33:58;38.80;74.80
13344;DHT22;6741;48.964;9.406;2022-07-24T13:36:25;37.10;83.80
13344;DHT22;6741;48.964;9.406;2022-07-24T13:38:54;36.30;82.40
13344;DHT22;6741;48.964;9.406;2022-07-24T13:41:21;36.80;84.00
13344;DHT22;6741;48.964;9.406;2022-07-24T13:43:49;38.50;68.70
13344;DHT22;6741;48.964;9.406;2022-07-24T13:46:17;38.50;74.60
13344;DHT22;6741;48.964;9.406;2022-07-24T13:48:44;39.70;63.50
13344;DHT22;6741;48.964;9.406;2022-07-24T13:51:11;40.20;56.90
13344;DHT22;6741;48.964;9.406;2022-07-24T13:53:38;40.60;48.20
13344;DHT22;6741;48.964;9.406;2022-07-24T13:56:08;40.60;47.40
13344;DHT22;6741;48.964;9.406;2022-07-24T13:58:35;40.90;43.30
13344;DHT22;6741;48.964;9.406;2022-07-24T14:01:03;40.90;35.20
13344;DHT22;6741;48.964;9.406;2022-07-24T14:03:30;40.20;33.90
13344;DHT22;6741;48.964;9.406;2022-07-24T14:05:57;39.40;40.20
13344;DHT22;6741;48.964;9.406;2022-07-24T14:08:24;38.60;42.40
13344;DHT22;6741;48.964;9.406;2022-07-24T14:10:51;37.90;54.20
13344;DHT22;6741;48.964;9.406;2022-07-24T14:13:20;38.20;51.50
13344;DHT22;6741;48.964;9.406;2022-07-24T14:15:47;38.50;37.90
13344;DHT22;6741;48.964;9.406;2022-07-24T14:18:14;38.70;49.80
13344;DHT22;6741;48.964;9.406;2022-07-24T14:20:41;39.40;37.00
13344;DHT22;6741;48.964;9.406;2022-07-24T14:23:08;38.70;38.80
13344;DHT22;6741;48.964;9.406;2022-07-24T14:25:35;39.60;34.40
13344;DHT22;6741;48.964;9.406;2022-07-24T14:28:02;40.40;24.80
13344;DHT22;6741;48.964;9.406;2022-07-24T14:30:31;39.30;33.10
13344;DHT22;6741;48.964;9.406;2022-07-24T14:32:58;39.50;35.70
13344;DHT22;6741;48.964;9.406;2022-07-24T14:35:25;39.80;27.60
13344;DHT22;6741;48.964;9.406;2022-07-24T14:37:53;39.40;29.20
13344;DHT22;6741;48.964;9.406;2022-07-24T14:40:20;40.50;28.10
13344;DHT22;6741;48.964;9.406;2022-07-24T14:42:47;41.40;20.30
13344;DHT22;6741;48.964;9.406;2022-07-24T14:45:14;41.70;15.10
13344;DHT22;6741;48.964;9.406;2022-07-24T14:47:42;42.10;19.80
13344;DHT22;6741;48.964;9.406;2022-07-24T14:50:10;42.50;10.80
13344;DHT22;6741;48.964;9.406;2022-07-24T14:52:37;41.40;8.10
13344;DHT22;6741;48.964;9.406;2022-07-24T14:55:06;39.10;19.40
13344;DHT22;6741;48.964;9.406;2022-07-24T14:57:33;39.20;20.80
13344;DHT22;6741;48.964;9.406;2022-07-24T15:00:00;39.40;17.80
13344;DHT22;6741;48.964;9.406;2022-07-24T15:02:28;39.10;17.00
13344;DHT22;6741;48.964;9.406;2022-07-24T15:04:56;39.40;15.70
13344;DHT22;6741;48.964;9.406;2022-07-24T15:07:24;38.40;21.10
13344;DHT22;6741;48.964;9.406;2022-07-24T15:09:51;38.70;22.00
13344;DHT22;6741;48.964;9.406;2022-07-24T15:12:18;39.10;19.30
13344;DHT22;6741;48.964;9.406;2022-07-24T15:14:45;39.30;16.70
13344;DHT22;6741;48.964;9.406;2022-07-24T15:17:11;38.60;21.60
13344;DHT22;6741;48.964;9.406;2022-07-24T15:19:38;38.60;18.10
13344;DHT22;6741;48.964;9.406;2022-07-24T15:22:07;38.80;18.00
13344;DHT22;6741;48.964;9.406;2022-07-24T15:24:33;38.20;19.70
13344;DHT22;6741;48.964;9.406;2022-07-24T15:27:00;38.10;20.80
13344;DHT22;6741;48.964;9.406;2022-07-24T15:29:27;38.40;19.10
13344;DHT22;6741;48.964;9.406;2022-07-24T15:31:56;39.40;17.90
13344;DHT22;6741;48.964;9.406;2022-07-24T15:34:23;40.10;14.80
13344;DHT22;6741;48.964;9.406;2022-07-24T15:36:50;39.30;12.90
13344;DHT22;6741;48.964;9.406;2022-07-24T15:39:22;39.60;10.70
13344;DHT22;6741;48.964;9.406;2022-07-24T15:41:49;39.60;13.70
13344;DHT22;6741;48.964;9.406;2022-07-24T15:44:16;38.70;13.40
13344;DHT22;6741;48.964;9.406;2022-07-24T15:46:43;37.30;21.00
13344;DHT22;6741;48.964;9.406;2022-07-24T15:49:13;37.10;24.70
13344;DHT22;6741;48.964;9.406;2022-07-24T15:51:40;37.00;24.40
13344;DHT22;6741;48.964;9.406;2022-07-24T15:54:07;37.00;26.60
13344;DHT22;6741;48.964;9.406;2022-07-24T15:56:36;37.60;23.90
13344;DHT22;6741;48.964;9.406;2022-07-24T15:59:03;37.50;25.30
13344;DHT22;6741;48.964;9.406;2022-07-24T16:01:30;37.30;22.00